createdAt,value
2022-09-30T00:00:09.042Z,7.72
2022-09-30T00:01:11.800Z,7.38
2022-09-30T00:02:14.752Z,7.59
2022-09-30T00:03:17.635Z,6.76
2022-09-30T00:04:20.931Z,6.74
2022-09-30T00:05:24.324Z,6.95
2022-09-30T00:06:27.296Z,6.39
2022-09-30T00:07:30.477Z,7.18
2022-09-30T00:08:33.578Z,6.57
2022-09-30T00:09:36.792Z,7.24
2022-09-30T00:10:39.613Z,7.19
2022-09-30T00:11:43.021Z,7.77
2022-09-30T00:12:46.320Z,7.14
2022-09-30T00:13:50.746Z,6.28
2022-09-30T00:14:53.987Z,6.46
2022-09-30T00:15:57.428Z,6.72
2022-09-30T00:17:00.238Z,7.38
2022-09-30T00:18:03.939Z,6.46
2022-09-30T00:19:07.111Z,6.22
2022-09-30T00:20:10.515Z,5.94
2022-09-30T00:21:13.266Z,6.36
2022-09-30T00:22:16.874Z,6.10
2022-09-30T00:23:19.835Z,5.50
2022-09-30T00:24:22.821Z,5.97
2022-09-30T00:25:25.805Z,5.61
2022-09-30T00:26:28.704Z,5.84
2022-09-30T00:27:31.750Z,6.12
2022-09-30T00:28:34.731Z,5.92
2022-09-30T00:29:37.806Z,5.28
2022-09-30T00:30:40.987Z,5.35
2022-09-30T00:31:44.043Z,4.74
2022-09-30T00:32:46.951Z,5.06
2022-09-30T00:33:49.924Z,4.55
2022-09-30T00:34:53.058Z,4.80
2022-09-30T00:35:56.389Z,4.91
2022-09-30T00:36:59.666Z,4.78
2022-09-30T00:38:03.058Z,4.58
2022-09-30T00:39:06.148Z,5.08
2022-09-30T00:40:10.355Z,4.79
2022-09-30T00:41:13.727Z,4.78
2022-09-30T00:42:16.909Z,4.88
2022-09-30T00:43:19.897Z,5.36
2022-09-30T00:44:23.164Z,5.12
2022-09-30T00:45:26.154Z,4.69
2022-09-30T00:46:29.309Z,4.78
2022-09-30T00:48:44.703Z,4.84
2022-09-30T00:49:47.379Z,5.12
2022-09-30T00:50:50.458Z,4.73
2022-09-30T00:51:53.645Z,5.33
2022-09-30T00:52:56.713Z,5.18
2022-09-30T00:54:00.114Z,5.24
2022-09-30T00:55:03.183Z,5.53
2022-09-30T00:56:06.167Z,5.56
2022-09-30T00:57:09.339Z,5.04
2022-09-30T00:58:12.215Z,5.06
2022-09-30T00:59:16.128Z,5.28
2022-09-30T01:01:35.645Z,5.75
2022-09-30T01:02:38.461Z,5.38
2022-09-30T01:03:41.536Z,5.09
2022-09-30T01:04:44.848Z,5.49
2022-09-30T01:05:47.901Z,4.75
2022-09-30T01:06:50.718Z,5.72
2022-09-30T01:07:53.749Z,5.05
2022-09-30T01:08:56.890Z,5.38
2022-09-30T01:09:59.809Z,5.32
2022-09-30T01:11:07.863Z,4.85
2022-09-30T01:12:07.602Z,4.62
2022-09-30T01:13:10.581Z,4.47
2022-09-30T01:14:13.767Z,5.02
2022-09-30T01:15:16.841Z,4.74
2022-09-30T01:16:19.753Z,4.52
2022-09-30T01:17:23.001Z,4.22
2022-09-30T01:18:26.588Z,4.68
2022-09-30T01:19:29.884Z,4.85
2022-09-30T01:20:32.655Z,5.01
2022-09-30T01:21:35.629Z,4.63
2022-09-30T01:22:42.061Z,5.47
2022-09-30T01:23:42.709Z,5.38
2022-09-30T01:24:45.583Z,5.29
2022-09-30T01:25:48.349Z,4.63
2022-09-30T01:26:52.559Z,5.19
2022-09-30T01:27:55.741Z,4.96
2022-09-30T01:28:58.724Z,4.48
2022-09-30T01:30:02.021Z,5.08
2022-09-30T01:31:05.240Z,5.22
2022-09-30T01:32:08.367Z,5.85
2022-09-30T01:33:11.150Z,5.48
2022-09-30T01:34:14.445Z,5.11
2022-09-30T01:36:33.488Z,5.31
2022-09-30T01:37:36.566Z,5.64
2022-09-30T01:39:47.029Z,5.54
2022-09-30T01:40:49.800Z,5.15
2022-09-30T01:41:53.288Z,4.84
2022-09-30T01:42:56.301Z,5.19
2022-09-30T01:43:59.042Z,5.83
2022-09-30T01:45:01.912Z,5.55
2022-09-30T01:46:04.992Z,5.38
2022-09-30T01:47:07.871Z,6.07
2022-09-30T01:48:11.770Z,5.48
2022-09-30T01:49:15.674Z,5.44
2022-09-30T01:50:18.965Z,5.10
2022-09-30T01:51:22.230Z,4.75
2022-09-30T01:52:25.211Z,5.28
2022-09-30T01:53:28.482Z,4.69
2022-09-30T01:54:31.461Z,4.18
2022-09-30T01:55:34.439Z,4.39
2022-09-30T01:56:37.328Z,4.15
2022-09-30T01:57:40.415Z,4.48
2022-09-30T01:58:45.039Z,4.74
2022-09-30T01:59:50.675Z,5.14
2022-09-30T02:00:53.612Z,4.89
2022-09-30T02:01:56.850Z,4.58
2022-09-30T02:03:00.607Z,4.80
2022-09-30T02:04:03.906Z,5.08
2022-09-30T02:05:07.176Z,5.69
2022-09-30T02:06:10.148Z,6.10
2022-09-30T02:07:12.854Z,6.16
2022-09-30T02:08:15.689Z,5.93
2022-09-30T02:09:18.745Z,4.99
2022-09-30T02:10:21.444Z,4.82
2022-09-30T02:11:24.431Z,4.44
2022-09-30T02:12:27.407Z,4.13
2022-09-30T02:13:30.415Z,4.34
2022-09-30T02:14:33.357Z,4.10
2022-09-30T02:15:40.332Z,4.05
2022-09-30T02:19:05.028Z,4.21
2022-09-30T02:20:08.000Z,4.33
2022-09-30T02:23:43.475Z,4.37
2022-09-30T02:24:46.220Z,4.38
2022-09-30T02:26:56.892Z,5.08
2022-09-30T02:28:00.296Z,5.03
2022-09-30T02:29:03.365Z,4.90
2022-09-30T02:30:06.261Z,4.75
2022-09-30T02:31:09.801Z,4.18
2022-09-30T02:32:12.800Z,4.11
2022-09-30T02:33:16.199Z,4.01
2022-09-30T02:34:19.173Z,3.94
2022-09-30T02:35:21.939Z,3.67
2022-09-30T02:36:25.135Z,3.68
2022-09-30T02:37:28.507Z,3.58
2022-09-30T02:38:31.486Z,4.09
2022-09-30T02:39:35.071Z,4.19
2022-09-30T02:40:40.417Z,4.38
2022-09-30T02:41:42.774Z,3.62
2022-09-30T02:42:45.538Z,3.50
2022-09-30T02:43:48.314Z,3.22
2022-09-30T02:44:51.196Z,3.50
2022-09-30T02:45:54.272Z,3.80
2022-09-30T02:46:57.242Z,3.29
2022-09-30T02:47:59.912Z,3.59
2022-09-30T02:49:02.687Z,3.83
2022-09-30T02:50:05.473Z,3.64
2022-09-30T02:51:08.339Z,3.77
2022-09-30T02:52:11.414Z,3.68
2022-09-30T02:53:14.087Z,4.23
2022-09-30T02:54:16.855Z,4.18
2022-09-30T02:55:20.140Z,4.20
2022-09-30T02:56:23.014Z,4.10
2022-09-30T02:57:25.687Z,4.32
2022-09-30T02:58:29.074Z,4.80
2022-09-30T02:59:32.145Z,4.87
2022-09-30T03:00:35.378Z,5.08
2022-09-30T03:01:38.362Z,5.00
2022-09-30T03:02:41.183Z,5.19
2022-09-30T03:03:44.174Z,5.44
2022-09-30T03:04:47.541Z,5.57
2022-09-30T03:05:50.432Z,5.76
2022-09-30T03:06:53.832Z,6.40
2022-09-30T03:07:56.686Z,5.25
2022-09-30T03:09:00.061Z,5.36
2022-09-30T03:10:03.256Z,5.22
2022-09-30T03:11:06.551Z,4.91
2022-09-30T03:12:09.731Z,4.03
2022-09-30T03:13:12.843Z,4.65
2022-09-30T03:14:15.988Z,4.28
2022-09-30T03:15:19.269Z,4.42
2022-09-30T03:16:22.586Z,4.92
2022-09-30T03:17:25.949Z,4.72
2022-09-30T03:18:29.010Z,4.79
2022-09-30T03:19:32.094Z,4.49
2022-09-30T03:20:35.379Z,4.76
2022-09-30T03:21:38.261Z,4.32
2022-09-30T03:22:41.341Z,4.54
2022-09-30T03:23:44.412Z,4.32
2022-09-30T03:24:47.501Z,4.13
2022-09-30T03:25:50.782Z,4.28
2022-09-30T03:26:53.746Z,4.54
2022-09-30T03:27:58.287Z,4.72
2022-09-30T03:29:01.665Z,4.42
2022-09-30T03:30:04.432Z,4.03
2022-09-30T03:31:07.461Z,4.41
2022-09-30T03:32:10.779Z,4.82
2022-09-30T03:33:13.967Z,4.57
2022-09-30T03:34:16.955Z,4.29
2022-09-30T03:35:20.234Z,4.83
2022-09-30T03:36:23.419Z,4.75
2022-09-30T03:37:26.812Z,4.44
2022-09-30T03:38:29.783Z,5.00
2022-09-30T03:39:32.858Z,4.67
2022-09-30T03:40:35.847Z,5.11
2022-09-30T03:41:39.218Z,4.59
2022-09-30T03:42:42.091Z,4.15
2022-09-30T03:43:44.864Z,3.75
2022-09-30T03:44:47.741Z,3.91
2022-09-30T03:45:50.513Z,3.84
2022-09-30T03:46:53.979Z,3.72
2022-09-30T03:47:56.885Z,3.65
2022-09-30T03:48:59.852Z,3.69
2022-09-30T03:50:02.624Z,4.42
2022-09-30T03:51:05.912Z,3.78
2022-09-30T03:52:08.990Z,3.77
2022-09-30T03:53:12.169Z,4.48
2022-09-30T03:54:15.143Z,4.36
2022-09-30T03:55:18.233Z,4.30
2022-09-30T03:56:20.893Z,4.39
2022-09-30T03:57:24.291Z,4.52
2022-09-30T03:58:27.781Z,4.38
2022-09-30T03:59:31.269Z,3.74
2022-09-30T04:00:34.298Z,4.08
2022-09-30T04:01:37.683Z,4.46
2022-09-30T04:02:40.701Z,4.67
2022-09-30T04:03:43.604Z,3.56
2022-09-30T04:04:46.979Z,3.67
2022-09-30T04:05:49.740Z,3.62
2022-09-30T04:06:52.608Z,3.94
2022-09-30T04:07:55.993Z,3.77
2022-09-30T04:08:59.227Z,3.98
2022-09-30T04:10:02.190Z,4.01
2022-09-30T04:11:05.346Z,3.51
2022-09-30T04:12:08.417Z,3.81
2022-09-30T04:13:11.513Z,3.84
2022-09-30T04:14:14.472Z,3.52
2022-09-30T04:15:17.150Z,3.15
2022-09-30T04:16:20.366Z,2.34
2022-09-30T04:17:23.307Z,2.69
2022-09-30T04:18:34.773Z,2.78
2022-09-30T04:19:37.850Z,2.76
2022-09-30T04:20:41.049Z,2.48
2022-09-30T04:21:43.908Z,3.42
2022-09-30T04:22:46.787Z,2.99
2022-09-30T04:23:49.872Z,3.03
2022-09-30T04:24:52.641Z,2.74
2022-09-30T04:25:55.424Z,2.62
2022-09-30T04:26:58.832Z,2.58
2022-09-30T04:28:01.683Z,2.47
2022-09-30T04:29:04.446Z,2.50
2022-09-30T04:30:07.426Z,2.20
2022-09-30T04:31:10.334Z,2.44
2022-09-30T04:32:13.176Z,2.44
2022-09-30T04:33:16.049Z,2.26
2022-09-30T04:34:19.127Z,2.18
2022-09-30T04:35:22.004Z,2.26
2022-09-30T04:36:25.079Z,2.75
2022-09-30T04:37:28.062Z,2.94
2022-09-30T04:38:30.950Z,2.67
2022-09-30T04:39:34.436Z,2.65
2022-09-30T04:40:37.407Z,2.52
2022-09-30T04:41:40.170Z,2.76
2022-09-30T04:42:42.954Z,2.46
2022-09-30T04:43:46.539Z,2.62
2022-09-30T04:44:49.832Z,2.44
2022-09-30T04:45:52.600Z,2.65
2022-09-30T04:46:55.573Z,2.97
2022-09-30T04:47:58.446Z,2.78
2022-09-30T04:49:09.317Z,2.61
2022-09-30T04:50:12.588Z,2.86
2022-09-30T04:51:15.668Z,3.05
2022-09-30T04:52:18.746Z,3.36
2022-09-30T04:53:22.344Z,2.85
2022-09-30T04:54:25.222Z,2.87
2022-09-30T04:55:28.310Z,2.98
2022-09-30T04:56:31.810Z,2.94
2022-09-30T04:57:34.670Z,3.30
2022-09-30T04:58:37.562Z,2.65
2022-09-30T04:59:40.612Z,2.78
2022-09-30T05:00:44.554Z,2.36
2022-09-30T05:01:47.822Z,2.81
2022-09-30T05:02:50.923Z,2.67
2022-09-30T05:03:54.049Z,2.41
2022-09-30T05:04:56.962Z,2.45
2022-09-30T05:05:59.909Z,2.77
2022-09-30T05:07:02.891Z,3.12
2022-09-30T05:08:05.664Z,3.09
2022-09-30T05:09:08.534Z,3.25
2022-09-30T05:10:11.514Z,3.16
2022-09-30T05:11:14.914Z,3.08
2022-09-30T05:12:18.391Z,3.65
2022-09-30T05:13:21.258Z,3.12
2022-09-30T05:14:24.850Z,2.94
2022-09-30T05:15:28.138Z,2.86
2022-09-30T05:16:31.452Z,3.29
2022-09-30T05:17:34.596Z,2.48
2022-09-30T05:18:37.376Z,2.58
2022-09-30T05:19:41.501Z,2.63
2022-09-30T05:20:44.260Z,2.81
2022-09-30T05:21:47.535Z,2.86
2022-09-30T05:22:51.840Z,2.86
2022-09-30T05:23:54.711Z,2.24
2022-09-30T05:24:58.019Z,2.70
2022-09-30T05:26:01.592Z,2.84
2022-09-30T05:27:05.078Z,2.14
2022-09-30T05:28:08.374Z,2.38
2022-09-30T05:29:11.654Z,2.68
2022-09-30T05:30:14.944Z,2.75
2022-09-30T05:31:17.955Z,2.68
2022-09-30T05:32:21.296Z,2.93
2022-09-30T05:33:24.274Z,2.78
2022-09-30T05:34:27.663Z,2.83
2022-09-30T05:35:30.838Z,2.99
2022-09-30T05:36:34.747Z,2.80
2022-09-30T05:37:38.447Z,3.16
2022-09-30T05:38:50.050Z,3.01
2022-09-30T05:39:54.004Z,2.58
2022-09-30T05:40:57.012Z,2.64
2022-09-30T05:41:59.765Z,2.58
2022-09-30T05:43:02.740Z,2.73
2022-09-30T05:44:05.923Z,2.32
2022-09-30T05:45:09.323Z,2.45
2022-09-30T05:46:12.788Z,2.27
2022-09-30T05:47:15.985Z,2.74
2022-09-30T05:48:19.299Z,2.64
2022-09-30T05:49:22.352Z,2.51
2022-09-30T05:50:25.331Z,2.23
2022-09-30T05:51:28.404Z,2.33
2022-09-30T05:52:31.289Z,2.33
2022-09-30T05:53:34.774Z,2.16
2022-09-30T05:54:37.589Z,2.35
2022-09-30T05:55:40.611Z,2.07
2022-09-30T05:56:43.753Z,2.27
2022-09-30T05:57:46.572Z,2.25
2022-09-30T05:58:50.894Z,2.60
2022-09-30T05:59:54.065Z,2.72
2022-09-30T06:00:59.553Z,2.98
2022-09-30T06:02:01.739Z,2.42
2022-09-30T06:03:05.143Z,2.82
2022-09-30T06:04:08.771Z,3.05
2022-09-30T06:05:11.607Z,2.71
2022-09-30T06:06:15.406Z,2.63
2022-09-30T06:07:18.172Z,3.11
2022-09-30T06:08:22.298Z,2.62
2022-09-30T06:09:25.661Z,3.01
2022-09-30T06:10:28.752Z,2.72
2022-09-30T06:11:31.531Z,2.96
2022-09-30T06:12:34.502Z,3.16
2022-09-30T06:13:37.475Z,2.76
2022-09-30T06:14:40.764Z,2.79
2022-09-30T06:15:43.835Z,3.25
2022-09-30T06:16:47.081Z,3.00
2022-09-30T06:17:49.788Z,3.25
2022-09-30T06:18:52.665Z,3.28
2022-09-30T06:19:57.499Z,3.02
2022-09-30T06:21:00.669Z,3.25
2022-09-30T06:22:03.554Z,3.59
2022-09-30T06:23:06.525Z,4.01
2022-09-30T06:24:09.185Z,3.54
2022-09-30T06:25:13.034Z,3.54
2022-09-30T06:26:19.438Z,3.94
2022-09-30T06:27:22.523Z,3.61
2022-09-30T06:28:25.607Z,3.69
2022-09-30T06:29:31.038Z,3.82
2022-09-30T06:30:35.367Z,4.26
2022-09-30T06:31:38.657Z,4.13
2022-09-30T06:32:41.710Z,4.03
2022-09-30T06:33:44.688Z,3.93
2022-09-30T06:34:47.773Z,3.82
2022-09-30T06:35:50.840Z,3.46
2022-09-30T06:36:53.919Z,4.01
2022-09-30T06:37:56.489Z,3.99
2022-09-30T06:38:59.154Z,3.52
2022-09-30T06:40:01.947Z,4.10
2022-09-30T06:41:05.013Z,4.43
2022-09-30T06:42:07.789Z,5.58
2022-09-30T06:43:19.221Z,6.11
2022-09-30T06:44:22.650Z,6.02
2022-09-30T06:45:32.296Z,5.78
2022-09-30T06:46:31.150Z,5.13
2022-09-30T06:47:34.730Z,5.62
2022-09-30T06:48:48.088Z,5.39
2022-09-30T06:49:51.647Z,5.46
2022-09-30T06:51:01.401Z,5.74
2022-09-30T06:51:59.293Z,5.58
2022-09-30T06:53:02.671Z,5.08
2022-09-30T06:54:06.039Z,4.71
2022-09-30T06:55:12.082Z,4.98
2022-09-30T06:56:15.572Z,5.38
2022-09-30T06:57:25.330Z,5.18
2022-09-30T06:58:28.501Z,4.73
2022-09-30T06:59:31.777Z,4.45
2022-09-30T07:00:35.425Z,4.68
2022-09-30T07:01:38.635Z,4.84
2022-09-30T07:02:41.433Z,4.65
2022-09-30T07:03:44.295Z,4.63
2022-09-30T07:04:47.061Z,4.19
2022-09-30T07:05:49.938Z,5.05
2022-09-30T07:06:53.533Z,4.72
2022-09-30T07:07:56.712Z,4.72
2022-09-30T07:08:59.590Z,4.63
2022-09-30T07:10:02.474Z,4.82
2022-09-30T07:11:05.441Z,5.09
2022-09-30T07:12:08.424Z,4.85
2022-09-30T07:13:11.930Z,5.38
2022-09-30T07:14:14.792Z,5.06
2022-09-30T07:15:17.647Z,5.21
2022-09-30T07:16:21.543Z,5.92
2022-09-30T07:17:29.908Z,5.91
2022-09-30T07:18:43.339Z,5.64
2022-09-30T07:19:46.060Z,6.09
2022-09-30T07:20:48.827Z,6.17
2022-09-30T07:21:51.587Z,5.54
2022-09-30T07:22:55.464Z,5.60
2022-09-30T07:23:58.873Z,5.71
2022-09-30T07:25:01.929Z,6.08
2022-09-30T07:26:04.620Z,5.82
2022-09-30T07:27:07.607Z,6.05
2022-09-30T07:28:10.887Z,5.76
2022-09-30T07:29:18.166Z,6.18
2022-09-30T07:30:26.998Z,6.24
2022-09-30T07:31:35.114Z,5.95
2022-09-30T07:32:35.520Z,6.81
2022-09-30T07:33:38.262Z,6.77
2022-09-30T07:34:41.147Z,6.82
2022-09-30T07:35:44.220Z,6.15
2022-09-30T07:36:47.201Z,6.90
2022-09-30T07:37:50.171Z,6.74
2022-09-30T07:38:59.989Z,6.98
2022-09-30T07:40:03.405Z,7.16
2022-09-30T07:41:06.167Z,7.08
2022-09-30T07:42:09.272Z,7.25
2022-09-30T07:43:12.326Z,8.02
2022-09-30T07:44:15.615Z,7.43
2022-09-30T07:45:18.583Z,7.55
2022-09-30T07:46:21.791Z,7.26
2022-09-30T07:47:24.772Z,7.35
2022-09-30T07:48:27.423Z,8.12
2022-09-30T07:49:37.328Z,8.98
2022-09-30T07:50:40.344Z,9.10
2022-09-30T07:51:43.958Z,9.51
2022-09-30T07:52:48.650Z,10.19
2022-09-30T07:53:51.824Z,9.71
2022-09-30T07:54:54.925Z,10.35
2022-09-30T07:55:58.188Z,9.75
2022-09-30T07:57:16.449Z,11.03
2022-09-30T07:58:06.218Z,10.41
2022-09-30T07:59:09.704Z,10.26
2022-09-30T08:00:40.589Z,9.83
2022-09-30T08:01:17.763Z,10.45
2022-09-30T08:02:20.525Z,11.20
2022-09-30T08:03:24.021Z,10.56
2022-09-30T08:04:27.330Z,10.38
2022-09-30T08:05:30.122Z,10.95
2022-09-30T08:06:33.187Z,10.54
2022-09-30T08:07:36.264Z,10.08
2022-09-30T08:08:39.240Z,8.95
2022-09-30T08:09:42.634Z,8.64
2022-09-30T08:10:46.009Z,7.83
2022-09-30T08:11:49.093Z,8.20
2022-09-30T08:12:54.606Z,9.47
2022-09-30T08:13:57.203Z,9.91
2022-09-30T08:14:59.969Z,8.73
2022-09-30T08:16:03.149Z,8.92
2022-09-30T08:17:07.162Z,8.58
2022-09-30T08:18:09.823Z,9.68
2022-09-30T08:19:12.898Z,9.24
2022-09-30T08:20:21.468Z,8.21
2022-09-30T08:21:20.804Z,8.05
2022-09-30T08:22:24.401Z,8.19
2022-09-30T08:23:27.895Z,7.88
2022-09-30T08:24:31.261Z,7.85
2022-09-30T08:25:34.746Z,7.96
2022-09-30T08:26:38.184Z,8.35
2022-09-30T08:27:41.845Z,7.99
2022-09-30T08:28:44.809Z,8.14
2022-09-30T08:29:55.144Z,8.79
2022-09-30T08:30:52.098Z,9.30
2022-09-30T08:31:55.066Z,9.31
2022-09-30T08:32:58.055Z,8.62
2022-09-30T08:34:01.849Z,8.67
2022-09-30T08:35:04.723Z,8.59
2022-09-30T08:36:08.147Z,8.68
2022-09-30T08:37:10.986Z,7.97
2022-09-30T08:38:14.377Z,8.72
2022-09-30T08:39:17.885Z,8.62
2022-09-30T08:40:21.393Z,9.54
2022-09-30T08:41:24.244Z,10.44
2022-09-30T08:42:47.107Z,10.01
2022-09-30T08:43:31.824Z,10.31
2022-09-30T08:44:34.893Z,10.36
2022-09-30T08:45:38.014Z,10.62
2022-09-30T08:46:41.363Z,9.75
2022-09-30T08:47:44.339Z,8.87
2022-09-30T08:48:47.212Z,10.07
2022-09-30T08:49:49.981Z,10.12
2022-09-30T08:50:52.647Z,9.36
2022-09-30T08:51:55.433Z,9.91
2022-09-30T08:52:58.200Z,9.68
2022-09-30T08:54:01.590Z,10.01
2022-09-30T08:55:04.472Z,9.62
2022-09-30T08:56:07.167Z,10.93
2022-09-30T08:57:09.911Z,9.95
2022-09-30T08:58:12.879Z,9.93
2022-09-30T08:59:15.936Z,8.48
2022-09-30T09:00:19.060Z,8.32
2022-09-30T09:01:21.838Z,7.98
2022-09-30T09:02:24.759Z,8.88
2022-09-30T09:03:27.560Z,8.36
2022-09-30T09:04:30.500Z,8.87
2022-09-30T09:05:33.409Z,8.57
2022-09-30T09:06:36.404Z,7.78
2022-09-30T09:07:39.268Z,8.15
2022-09-30T09:08:42.450Z,8.32
2022-09-30T09:09:45.856Z,8.98
2022-09-30T09:10:48.703Z,9.07
2022-09-30T09:11:51.696Z,7.92
2022-09-30T09:12:54.465Z,8.01
2022-09-30T09:13:57.657Z,9.52
2022-09-30T09:15:00.716Z,8.72
2022-09-30T09:16:03.789Z,8.14
2022-09-30T09:17:08.741Z,9.42
2022-09-30T09:18:23.138Z,9.34
2022-09-30T09:19:15.388Z,8.52
2022-09-30T09:20:18.483Z,8.25
2022-09-30T09:21:21.132Z,8.39
2022-09-30T09:22:25.039Z,9.43
2022-09-30T09:23:28.242Z,8.75
2022-09-30T09:24:30.781Z,9.01
2022-09-30T09:25:34.203Z,8.90
2022-09-30T09:26:36.947Z,9.09
2022-09-30T09:27:40.048Z,8.71
2022-09-30T09:28:42.694Z,9.40
2022-09-30T09:29:46.109Z,8.62
2022-09-30T09:30:49.063Z,9.58
2022-09-30T09:31:51.978Z,9.49
2022-09-30T09:32:54.601Z,9.66
2022-09-30T09:33:57.578Z,9.23
2022-09-30T09:35:00.664Z,9.64
2022-09-30T09:36:03.943Z,8.46
2022-09-30T09:37:07.121Z,8.77
2022-09-30T09:38:10.111Z,8.55
2022-09-30T09:39:13.189Z,8.41
2022-09-30T09:40:16.166Z,8.09
2022-09-30T09:41:19.136Z,7.93
2022-09-30T09:42:22.525Z,8.92
2022-09-30T09:43:27.673Z,8.52
2022-09-30T09:44:30.020Z,7.84
2022-09-30T09:45:33.525Z,7.84
2022-09-30T09:46:36.381Z,9.36
2022-09-30T09:47:39.349Z,8.46
2022-09-30T09:48:42.120Z,9.08
2022-09-30T09:49:44.995Z,7.90
2022-09-30T09:50:48.484Z,8.18
2022-09-30T09:51:51.878Z,8.16
2022-09-30T09:52:54.753Z,7.82
2022-09-30T09:53:57.729Z,7.03
2022-09-30T09:55:00.712Z,7.18
2022-09-30T09:56:03.902Z,7.42
2022-09-30T09:57:07.179Z,7.28
2022-09-30T09:58:09.845Z,7.81
2022-09-30T09:59:12.612Z,7.75
2022-09-30T10:00:15.588Z,8.77
2022-09-30T10:01:18.521Z,7.41
2022-09-30T10:02:21.280Z,7.40
2022-09-30T10:03:24.116Z,7.43
2022-09-30T10:04:27.193Z,7.68
2022-09-30T10:05:30.285Z,7.58
2022-09-30T10:06:33.144Z,8.34
2022-09-30T10:07:36.013Z,8.28
2022-09-30T10:08:38.873Z,7.75
2022-09-30T10:09:41.664Z,7.48
2022-09-30T10:10:44.564Z,7.24
2022-09-30T10:11:47.419Z,7.31
2022-09-30T10:12:50.502Z,7.85
2022-09-30T10:13:53.373Z,7.67
2022-09-30T10:14:56.240Z,7.62
2022-09-30T10:15:59.063Z,7.18
2022-09-30T10:17:01.888Z,7.22
2022-09-30T10:18:05.501Z,6.92
2022-09-30T10:19:09.691Z,7.19
2022-09-30T10:20:12.768Z,6.95
2022-09-30T10:21:15.540Z,7.89
2022-09-30T10:22:18.938Z,8.15
2022-09-30T10:23:22.154Z,8.14
2022-09-30T10:24:25.093Z,8.10
2022-09-30T10:25:27.864Z,8.05
2022-09-30T10:26:30.931Z,8.52
2022-09-30T10:27:33.817Z,8.38
2022-09-30T10:28:36.888Z,7.18
2022-09-30T10:29:39.867Z,7.51
2022-09-30T10:30:43.210Z,6.80
2022-09-30T10:31:46.847Z,7.26
2022-09-30T10:32:49.923Z,6.92
2022-09-30T10:33:52.691Z,7.05
2022-09-30T10:34:55.568Z,7.32
2022-09-30T10:35:58.756Z,7.24
2022-09-30T10:37:01.828Z,6.92
2022-09-30T10:38:05.416Z,6.77
2022-09-30T10:39:08.289Z,7.07
2022-09-30T10:40:11.579Z,6.69
2022-09-30T10:41:14.858Z,7.59
2022-09-30T10:42:20.259Z,7.38
2022-09-30T10:43:22.167Z,6.50
2022-09-30T10:44:25.642Z,6.22
2022-09-30T10:45:28.762Z,6.59
2022-09-30T10:46:31.617Z,7.08
2022-09-30T10:47:37.172Z,6.22
2022-09-30T10:48:38.985Z,6.10
2022-09-30T10:49:42.478Z,6.58
2022-09-30T10:50:45.452Z,6.37
2022-09-30T10:51:48.427Z,6.89
2022-09-30T10:52:51.090Z,6.45
2022-09-30T10:53:54.591Z,6.55
2022-09-30T10:54:57.868Z,6.08
2022-09-30T10:56:01.374Z,5.72
2022-09-30T10:57:04.137Z,6.83
2022-09-30T10:58:06.996Z,6.83
2022-09-30T10:59:10.191Z,6.80
2022-09-30T11:00:13.669Z,7.14
2022-09-30T11:01:16.775Z,6.72
2022-09-30T11:03:22.845Z,7.33
2022-09-30T11:04:25.679Z,7.38
2022-09-30T11:05:29.180Z,7.26
2022-09-30T11:06:32.374Z,6.73
2022-09-30T11:07:35.135Z,6.88
2022-09-30T11:08:38.109Z,7.33
2022-09-30T11:09:41.186Z,6.80
2022-09-30T11:10:44.295Z,6.83
2022-09-30T11:11:46.945Z,6.78
2022-09-30T11:12:49.807Z,7.05
2022-09-30T11:13:52.788Z,6.54
2022-09-30T11:14:55.763Z,6.59
2022-09-30T11:15:58.983Z,7.21
2022-09-30T11:17:01.824Z,6.92
2022-09-30T11:18:04.692Z,5.85
2022-09-30T11:19:07.573Z,6.28
2022-09-30T11:20:10.874Z,6.84
2022-09-30T11:21:14.054Z,7.03
2022-09-30T11:22:17.019Z,6.46
2022-09-30T11:23:20.090Z,6.47
2022-09-30T11:24:23.174Z,6.75
2022-09-30T11:25:26.461Z,6.92
2022-09-30T11:26:30.021Z,7.06
2022-09-30T11:27:33.444Z,7.12
2022-09-30T11:28:36.533Z,6.73
2022-09-30T11:29:39.699Z,7.16
2022-09-30T11:30:42.467Z,7.31
2022-09-30T11:31:46.102Z,6.94
2022-09-30T11:32:49.050Z,7.64
2022-09-30T11:33:52.009Z,7.53
2022-09-30T11:34:54.785Z,7.53
2022-09-30T11:35:57.678Z,7.39
2022-09-30T11:37:02.069Z,7.38
2022-09-30T11:38:05.459Z,7.41
2022-09-30T11:39:09.676Z,6.92
2022-09-30T11:40:13.065Z,6.03
2022-09-30T11:41:16.031Z,5.93
2022-09-30T11:42:19.625Z,6.40
2022-09-30T11:43:23.146Z,6.52
2022-09-30T11:44:26.187Z,6.28
2022-09-30T11:45:29.488Z,5.78
2022-09-30T11:46:32.558Z,6.06
2022-09-30T11:47:35.934Z,5.90
2022-09-30T11:48:39.046Z,6.38
2022-09-30T11:49:42.300Z,5.65
2022-09-30T11:50:45.688Z,6.06
2022-09-30T11:51:48.861Z,5.99
2022-09-30T11:52:52.048Z,6.28
2022-09-30T11:53:55.028Z,6.65
2022-09-30T11:54:57.700Z,6.86
2022-09-30T11:56:00.775Z,6.67
2022-09-30T11:57:03.972Z,7.32
2022-09-30T11:58:22.699Z,6.75
2022-09-30T11:59:12.070Z,6.41
2022-09-30T12:00:15.348Z,6.77
2022-09-30T12:01:18.344Z,6.62
2022-09-30T12:02:21.117Z,6.28
2022-09-30T12:03:24.848Z,6.32
2022-09-30T12:04:27.565Z,6.55
2022-09-30T12:05:30.346Z,6.25
2022-09-30T12:06:33.429Z,6.76
2022-09-30T12:07:36.390Z,6.76
2022-09-30T12:08:39.468Z,6.92
2022-09-30T12:09:43.168Z,6.80
2022-09-30T12:10:46.040Z,6.26
2022-09-30T12:11:48.909Z,6.38
2022-09-30T12:12:52.515Z,5.69
2022-09-30T12:13:55.580Z,5.65
2022-09-30T12:14:58.368Z,6.19
2022-09-30T12:16:01.251Z,6.22
2022-09-30T12:17:04.610Z,6.18
2022-09-30T12:18:08.537Z,6.58
2022-09-30T12:19:11.608Z,5.87
2022-09-30T12:20:14.923Z,5.98
2022-09-30T12:21:17.766Z,6.54
2022-09-30T12:22:20.650Z,6.17
2022-09-30T12:23:23.510Z,6.25
2022-09-30T12:24:26.474Z,6.47
2022-09-30T12:25:29.563Z,6.67
2022-09-30T12:26:32.697Z,6.57
2022-09-30T12:27:36.234Z,7.18
2022-09-30T12:28:39.107Z,6.51
2022-09-30T12:29:42.289Z,6.09
2022-09-30T12:30:45.167Z,7.13
2022-09-30T12:31:48.738Z,6.10
2022-09-30T12:32:51.629Z,5.58
2022-09-30T12:33:54.293Z,5.20
2022-09-30T12:34:57.371Z,5.93
2022-09-30T12:36:01.985Z,5.43
2022-09-30T12:37:04.882Z,5.43
2022-09-30T12:38:07.934Z,5.34
2022-09-30T12:39:11.648Z,5.28
2022-09-30T12:40:15.025Z,6.04
2022-09-30T12:41:18.201Z,6.55
2022-09-30T12:42:22.102Z,5.67
2022-09-30T12:43:24.984Z,6.66
2022-09-30T12:44:28.171Z,6.47
2022-09-30T12:45:31.446Z,6.21
2022-09-30T12:46:34.417Z,6.30
2022-09-30T12:47:37.602Z,6.17
2022-09-30T12:48:40.887Z,6.02
2022-09-30T12:49:45.405Z,6.10
2022-09-30T12:50:48.403Z,6.37
2022-09-30T12:51:51.254Z,6.22
2022-09-30T12:52:54.860Z,5.01
2022-09-30T12:53:57.818Z,5.53
2022-09-30T12:55:01.006Z,5.64
2022-09-30T12:56:04.290Z,5.15
2022-09-30T12:57:07.366Z,5.13
2022-09-30T12:58:10.664Z,5.48
2022-09-30T12:59:14.652Z,5.69
2022-09-30T13:00:17.353Z,5.34
2022-09-30T13:01:20.123Z,5.82
2022-09-30T13:02:23.019Z,5.77
2022-09-30T13:03:25.843Z,6.02
2022-09-30T13:04:28.719Z,5.34
2022-09-30T13:05:31.702Z,5.48
2022-09-30T13:06:34.784Z,5.68
2022-09-30T13:07:37.813Z,6.11
2022-09-30T13:08:41.341Z,5.59
2022-09-30T13:09:44.213Z,6.29
2022-09-30T13:10:47.205Z,6.26
2022-09-30T13:11:50.382Z,5.50
2022-09-30T13:12:53.257Z,6.12
2022-09-30T13:13:56.021Z,5.92
2022-09-30T13:14:59.624Z,6.23
2022-09-30T13:16:02.728Z,5.52
2022-09-30T13:17:06.591Z,6.16
2022-09-30T13:18:09.466Z,6.36
2022-09-30T13:19:14.490Z,5.98
2022-09-30T13:20:17.469Z,6.61
2022-09-30T13:21:20.338Z,6.34
2022-09-30T13:22:23.829Z,5.67
2022-09-30T13:23:26.907Z,6.18
2022-09-30T13:24:29.992Z,5.52
2022-09-30T13:25:34.725Z,6.09
2022-09-30T13:26:37.803Z,5.37
2022-09-30T13:27:41.279Z,5.46
2022-09-30T13:28:44.155Z,5.84
2022-09-30T13:29:47.339Z,5.60
2022-09-30T13:30:50.116Z,6.47
2022-09-30T13:31:53.035Z,5.98
2022-09-30T13:32:56.076Z,5.94
2022-09-30T13:33:59.153Z,6.47
2022-09-30T13:35:02.431Z,5.79
2022-09-30T13:36:05.212Z,6.41
2022-09-30T13:37:07.994Z,6.48
2022-09-30T13:38:10.657Z,6.28
2022-09-30T13:39:13.729Z,6.10
2022-09-30T13:40:18.653Z,5.49
2022-09-30T13:41:25.253Z,5.78
2022-09-30T13:42:28.022Z,5.48
2022-09-30T13:43:30.850Z,5.72
2022-09-30T13:44:34.047Z,5.35
2022-09-30T13:45:36.768Z,5.23
2022-09-30T13:46:39.681Z,5.25
2022-09-30T13:47:42.461Z,5.72
2022-09-30T13:48:45.746Z,5.43
2022-09-30T13:49:48.601Z,5.11
2022-09-30T13:50:51.484Z,6.07
2022-09-30T13:51:54.662Z,6.32
2022-09-30T13:52:57.747Z,5.52
2022-09-30T13:54:00.616Z,5.69
2022-09-30T13:55:03.805Z,5.55
2022-09-30T13:56:06.702Z,6.44
2022-09-30T13:57:09.549Z,6.31
2022-09-30T13:58:12.225Z,6.27
2022-09-30T13:59:15.729Z,6.51
2022-09-30T14:00:18.894Z,5.84
2022-09-30T14:01:21.998Z,6.15
2022-09-30T14:02:24.837Z,5.81
2022-09-30T14:03:27.867Z,6.45
2022-09-30T14:04:30.793Z,5.87
2022-09-30T14:05:34.184Z,5.61
2022-09-30T14:06:36.862Z,5.55
2022-09-30T14:07:40.210Z,5.83
2022-09-30T14:08:43.945Z,6.03
2022-09-30T14:09:47.126Z,6.09
2022-09-30T14:10:50.092Z,5.63
2022-09-30T14:11:52.968Z,6.48
2022-09-30T14:12:55.838Z,6.12